createdAt,value
2023-01-19T00:01:36.280Z,8.28
2023-01-19T00:04:04.090Z,7.85
2023-01-19T00:06:32.075Z,8.28
2023-01-19T00:08:59.670Z,8.13
2023-01-19T00:11:27.412Z,8.08
2023-01-19T00:13:54.920Z,8.11
2023-01-19T00:16:23.368Z,8.10
2023-01-19T00:18:52.507Z,8.17
2023-01-19T00:21:21.823Z,8.49
2023-01-19T00:23:51.278Z,8.26
2023-01-19T00:26:21.094Z,8.41
2023-01-19T00:28:49.815Z,8.41
2023-01-19T00:31:20.664Z,8.62
2023-01-19T00:33:49.448Z,8.56
2023-01-19T00:36:17.201Z,8.51
2023-01-19T00:38:44.891Z,8.56
2023-01-19T00:41:12.654Z,8.54
2023-01-19T00:43:40.384Z,8.58
2023-01-19T00:46:07.814Z,8.57
2023-01-19T00:48:35.796Z,8.70
2023-01-19T00:51:03.335Z,8.83
2023-01-19T00:53:32.527Z,8.94
2023-01-19T00:56:00.456Z,8.82
2023-01-19T00:58:28.001Z,8.73
2023-01-19T01:00:57.989Z,8.67
2023-01-19T01:03:28.169Z,8.35
2023-01-19T01:05:55.777Z,8.30
2023-01-19T01:08:23.358Z,8.30
2023-01-19T01:10:52.434Z,8.33
2023-01-19T01:13:22.380Z,8.33
2023-01-19T01:15:53.529Z,8.24
2023-01-19T01:18:21.940Z,8.15
2023-01-19T01:20:49.431Z,8.06
2023-01-19T01:23:23.061Z,8.15
2023-01-19T01:25:50.699Z,8.11
2023-01-19T01:28:18.571Z,8.34
2023-01-19T01:30:45.986Z,8.26
2023-01-19T01:33:13.407Z,7.95
2023-01-19T01:35:41.405Z,8.07
2023-01-19T01:38:09.156Z,8.09
2023-01-19T01:40:39.748Z,8.16
2023-01-19T01:43:14.928Z,8.19
2023-01-19T01:45:42.890Z,7.84
2023-01-19T01:48:28.248Z,8.19
2023-01-19T01:51:24.245Z,8.11
2023-01-19T01:54:04.146Z,8.08
2023-01-19T01:56:36.075Z,8.02
2023-01-19T01:59:05.731Z,7.88
2023-01-19T02:01:51.884Z,7.89
2023-01-19T02:04:19.952Z,8.02
2023-01-19T02:07:07.181Z,7.90
2023-01-19T02:09:55.209Z,7.96
2023-01-19T02:12:42.517Z,7.99
2023-01-19T02:15:20.199Z,8.02
2023-01-19T02:17:48.313Z,7.94
2023-01-19T02:20:16.259Z,7.62
2023-01-19T02:22:49.478Z,7.46
2023-01-19T02:25:18.675Z,7.40
2023-01-19T02:27:46.062Z,7.32
2023-01-19T02:30:14.164Z,7.08
2023-01-19T02:32:42.339Z,7.42
2023-01-19T02:35:10.879Z,7.35
2023-01-19T02:37:40.228Z,7.81
2023-01-19T02:40:13.532Z,8.00
2023-01-19T02:42:47.900Z,7.65
2023-01-19T02:45:19.427Z,7.30
2023-01-19T02:47:49.337Z,7.34
2023-01-19T02:50:43.057Z,7.43
2023-01-19T02:53:28.732Z,7.55
2023-01-19T02:56:25.685Z,7.55
2023-01-19T02:59:28.624Z,7.56
2023-01-19T03:02:18.309Z,7.63
2023-01-19T03:05:05.167Z,7.56
2023-01-19T03:07:45.994Z,7.62
2023-01-19T03:10:21.285Z,7.66
2023-01-19T03:13:04.310Z,7.35
2023-01-19T03:15:51.162Z,7.94
2023-01-19T03:18:21.368Z,7.70
2023-01-19T03:20:50.995Z,7.59
2023-01-19T03:23:19.983Z,7.76
2023-01-19T03:25:48.772Z,7.57
2023-01-19T03:28:19.170Z,7.93
2023-01-19T03:30:52.819Z,8.18
2023-01-19T03:33:27.457Z,8.25
2023-01-19T03:35:59.116Z,8.05
2023-01-19T03:38:27.418Z,7.80
2023-01-19T03:40:59.356Z,7.63
2023-01-19T03:43:27.701Z,7.60
2023-01-19T03:45:56.096Z,7.67
2023-01-19T03:48:24.049Z,7.50
2023-01-19T03:50:52.626Z,7.58
2023-01-19T03:53:20.731Z,7.47
2023-01-19T03:55:50.536Z,7.52
2023-01-19T03:58:17.949Z,7.36
2023-01-19T04:00:45.726Z,7.50
2023-01-19T04:03:15.400Z,7.53
2023-01-19T04:05:43.162Z,7.23
2023-01-19T04:08:10.630Z,7.27
2023-01-19T04:10:38.687Z,7.31
2023-01-19T04:13:06.328Z,7.07
2023-01-19T04:15:33.789Z,7.27
2023-01-19T04:18:01.838Z,7.21
2023-01-19T04:20:29.582Z,7.07
2023-01-19T04:23:00.024Z,7.23
2023-01-19T04:25:28.887Z,7.21
2023-01-19T04:27:58.355Z,7.30
2023-01-19T04:30:27.389Z,7.29
2023-01-19T04:32:58.567Z,6.93
2023-01-19T04:35:26.263Z,6.87
2023-01-19T04:37:53.785Z,6.73
2023-01-19T04:40:21.466Z,6.57
2023-01-19T04:42:48.985Z,6.83
2023-01-19T04:45:17.101Z,6.91
2023-01-19T04:47:45.044Z,6.93
2023-01-19T04:50:12.492Z,7.21
2023-01-19T04:52:40.094Z,6.93
2023-01-19T04:55:08.587Z,6.72
2023-01-19T04:57:36.135Z,6.87
2023-01-19T05:00:07.607Z,6.97
2023-01-19T05:02:35.855Z,6.88
2023-01-19T05:05:03.884Z,6.85
2023-01-19T05:07:31.494Z,6.53
2023-01-19T05:09:59.163Z,6.90
2023-01-19T05:12:26.799Z,6.73
2023-01-19T05:14:54.280Z,6.74
2023-01-19T05:17:21.988Z,6.59
2023-01-19T05:19:49.539Z,6.74
2023-01-19T05:22:17.306Z,6.69
2023-01-19T05:24:45.039Z,6.64
2023-01-19T05:27:12.719Z,6.84
2023-01-19T05:29:40.141Z,6.87
2023-01-19T05:32:07.911Z,7.00
2023-01-19T05:34:35.345Z,6.88
2023-01-19T05:37:02.846Z,6.64
2023-01-19T05:39:30.662Z,6.81
2023-01-19T05:41:58.077Z,6.75
2023-01-19T05:44:25.545Z,6.88
2023-01-19T05:46:53.518Z,6.95
2023-01-19T05:49:21.039Z,6.97
2023-01-19T05:51:48.625Z,7.02
2023-01-19T05:54:16.359Z,6.96
2023-01-19T05:56:44.010Z,6.97
2023-01-19T05:59:11.785Z,7.23
2023-01-19T06:01:40.321Z,7.30
2023-01-19T06:04:08.341Z,7.21
2023-01-19T06:06:35.829Z,7.03
2023-01-19T06:09:03.423Z,7.09
2023-01-19T06:11:31.121Z,7.04
2023-01-19T06:13:58.885Z,7.10
2023-01-19T06:16:26.587Z,6.90
2023-01-19T06:18:54.281Z,6.76
2023-01-19T06:21:21.953Z,6.57
2023-01-19T06:23:49.642Z,6.74
2023-01-19T06:26:17.356Z,6.81
2023-01-19T06:28:44.894Z,6.18
2023-01-19T06:31:12.621Z,6.43
2023-01-19T06:33:40.325Z,6.78
2023-01-19T06:36:08.215Z,6.25
2023-01-19T06:38:35.758Z,6.59
2023-01-19T06:41:04.840Z,6.50
2023-01-19T06:43:32.489Z,6.57
2023-01-19T06:46:03.072Z,6.43
2023-01-19T06:48:31.100Z,6.74
2023-01-19T06:50:59.697Z,6.64
2023-01-19T06:53:28.610Z,6.54
2023-01-19T06:56:03.923Z,6.65
2023-01-19T06:58:32.125Z,6.48
2023-01-19T07:01:04.444Z,6.63
2023-01-19T07:03:32.174Z,6.93
2023-01-19T07:06:02.574Z,7.33
2023-01-19T07:08:30.137Z,6.81
2023-01-19T07:11:25.392Z,6.63
2023-01-19T07:13:55.212Z,6.84
2023-01-19T07:16:23.471Z,6.74
2023-01-19T07:18:51.352Z,6.95
2023-01-19T07:21:19.406Z,7.19
2023-01-19T07:23:53.519Z,6.90
2023-01-19T07:26:42.083Z,7.08
2023-01-19T07:29:15.256Z,6.91
2023-01-19T07:31:42.996Z,7.61
2023-01-19T07:34:12.499Z,7.50
2023-01-19T07:36:40.015Z,7.17
2023-01-19T07:39:07.798Z,7.24
2023-01-19T07:41:35.643Z,6.90
2023-01-19T07:44:04.069Z,6.99
2023-01-19T07:46:31.747Z,7.13
2023-01-19T07:48:59.330Z,7.24
2023-01-19T07:51:27.903Z,7.27
2023-01-19T07:53:55.602Z,7.30
2023-01-19T07:56:24.352Z,7.67
2023-01-19T07:58:52.605Z,7.76
2023-01-19T08:01:20.667Z,7.33
2023-01-19T08:03:49.275Z,7.78
2023-01-19T08:06:25.230Z,7.74
2023-01-19T08:08:53.258Z,7.49
2023-01-19T08:11:20.898Z,7.46
2023-01-19T08:13:48.257Z,7.45
2023-01-19T08:16:15.997Z,7.33
2023-01-19T08:18:44.011Z,7.47
2023-01-19T08:21:11.453Z,7.74
2023-01-19T08:23:39.393Z,7.55
2023-01-19T08:26:28.018Z,7.54
2023-01-19T08:28:57.754Z,7.78
2023-01-19T08:31:25.912Z,7.63
2023-01-19T08:33:53.531Z,7.50
2023-01-19T08:36:21.646Z,7.15
2023-01-19T08:38:49.170Z,7.18
2023-01-19T08:41:16.920Z,7.34
2023-01-19T08:43:45.565Z,7.57
2023-01-19T08:46:17.064Z,7.53
2023-01-19T08:48:51.105Z,7.37
2023-01-19T08:51:18.967Z,7.08
2023-01-19T08:53:47.154Z,7.39
2023-01-19T08:56:14.885Z,7.10
2023-01-19T08:58:45.712Z,6.68
2023-01-19T09:01:17.162Z,7.09
2023-01-19T09:03:44.776Z,7.23
2023-01-19T09:06:14.607Z,6.98
2023-01-19T09:08:42.421Z,6.84
2023-01-19T09:11:14.897Z,6.62
2023-01-19T09:13:42.832Z,6.93
2023-01-19T09:16:12.698Z,6.84
2023-01-19T09:18:40.483Z,6.72
2023-01-19T09:21:09.163Z,7.16
2023-01-19T09:23:36.547Z,7.07
2023-01-19T09:26:05.427Z,6.83
2023-01-19T09:28:33.403Z,7.19
2023-01-19T09:31:06.404Z,6.78
2023-01-19T09:33:34.920Z,7.19
2023-01-19T09:36:02.698Z,7.00
2023-01-19T09:38:33.993Z,6.83
2023-01-19T09:41:01.950Z,6.71
2023-01-19T09:43:43.233Z,6.57
2023-01-19T09:46:19.636Z,6.72
2023-01-19T09:48:52.538Z,7.00
2023-01-19T09:51:23.569Z,6.90
2023-01-19T09:54:05.257Z,6.95
2023-01-19T09:56:33.175Z,6.74
2023-01-19T09:59:01.710Z,6.74
2023-01-19T10:01:35.667Z,6.13
2023-01-19T10:04:30.704Z,6.40
2023-01-19T10:07:37.115Z,5.71
2023-01-19T10:10:20.452Z,6.33
2023-01-19T10:13:17.318Z,6.26
2023-01-19T10:16:22.413Z,6.19
2023-01-19T10:18:52.133Z,5.99
2023-01-19T10:21:41.865Z,5.74
2023-01-19T10:24:22.640Z,5.89
2023-01-19T10:26:53.275Z,5.84
2023-01-19T10:29:39.522Z,5.83
2023-01-19T10:32:10.392Z,6.16
2023-01-19T10:34:38.503Z,6.10
2023-01-19T10:37:17.619Z,6.23
2023-01-19T10:39:46.467Z,5.87
2023-01-19T10:42:17.049Z,5.85
2023-01-19T10:44:45.809Z,6.02
2023-01-19T10:47:18.469Z,5.98
2023-01-19T10:49:47.374Z,5.84
2023-01-19T10:52:34.204Z,5.86
2023-01-19T10:55:03.769Z,5.84
2023-01-19T10:57:43.511Z,5.60
2023-01-19T11:00:34.627Z,5.59
2023-01-19T11:03:02.596Z,5.61
2023-01-19T11:05:33.187Z,5.69
2023-01-19T11:08:00.564Z,5.61
2023-01-19T11:10:31.219Z,5.94
2023-01-19T11:13:12.660Z,5.73
2023-01-19T11:15:54.209Z,5.80
2023-01-19T11:18:35.063Z,6.07
2023-01-19T11:21:06.506Z,6.32
2023-01-19T11:23:41.911Z,6.18
2023-01-19T11:26:16.434Z,6.04
2023-01-19T11:28:49.184Z,5.85
2023-01-19T11:31:20.380Z,5.78
2023-01-19T11:33:52.963Z,5.78
2023-01-19T11:36:25.744Z,5.69
2023-01-19T11:38:58.891Z,5.94
2023-01-19T11:41:29.734Z,5.46
2023-01-19T11:44:31.164Z,5.95
2023-01-19T11:47:30.980Z,6.02
2023-01-19T11:50:05.459Z,5.86
2023-01-19T11:52:48.673Z,6.08
2023-01-19T11:55:29.257Z,5.86
2023-01-19T11:57:56.934Z,5.81
2023-01-19T12:00:29.236Z,5.38
2023-01-19T12:03:15.812Z,5.63
2023-01-19T12:05:48.473Z,5.84
2023-01-19T12:08:22.130Z,5.60
2023-01-19T12:10:50.456Z,5.72
2023-01-19T12:13:23.745Z,5.73
2023-01-19T12:16:10.965Z,5.87
2023-01-19T12:18:43.366Z,5.92
2023-01-19T12:21:11.033Z,5.85
2023-01-19T12:23:41.759Z,6.00
2023-01-19T12:26:23.015Z,5.92
2023-01-19T12:28:52.295Z,5.83
2023-01-19T12:31:22.213Z,5.78
2023-01-19T12:33:52.392Z,6.06
2023-01-19T12:36:26.484Z,5.47
2023-01-19T12:39:15.261Z,5.36
2023-01-19T12:41:43.343Z,5.74
2023-01-19T12:44:16.803Z,6.06
2023-01-19T12:47:17.288Z,5.92
2023-01-19T12:49:46.709Z,5.85
2023-01-19T12:52:29.042Z,6.09
2023-01-19T12:55:15.031Z,5.68
2023-01-19T12:58:08.764Z,5.37
2023-01-19T13:00:37.131Z,5.41
2023-01-19T13:03:17.309Z,5.45
2023-01-19T13:05:44.770Z,5.50
2023-01-19T13:08:12.653Z,5.50
2023-01-19T13:10:52.864Z,5.61
2023-01-19T13:13:22.860Z,5.45
2023-01-19T13:15:51.083Z,5.60
2023-01-19T13:18:29.795Z,5.35
2023-01-19T13:21:03.439Z,5.18
2023-01-19T13:23:52.163Z,5.33
2023-01-19T13:26:32.484Z,5.27
2023-01-19T13:29:08.356Z,5.06
2023-01-19T13:31:40.946Z,5.35
2023-01-19T13:34:18.465Z,5.41
2023-01-19T13:36:48.229Z,5.30
2023-01-19T13:39:24.035Z,5.16
2023-01-19T13:41:55.265Z,5.17
2023-01-19T13:44:36.622Z,5.25
2023-01-19T13:47:06.151Z,5.37
2023-01-19T13:49:35.756Z,5.30
2023-01-19T13:52:14.136Z,5.28
2023-01-19T13:54:53.222Z,5.43
2023-01-19T13:57:23.927Z,5.34
2023-01-19T14:00:08.574Z,5.88
2023-01-19T14:02:39.842Z,5.30
2023-01-19T14:05:40.035Z,5.63
2023-01-19T14:08:13.561Z,5.96
2023-01-19T14:10:54.834Z,6.07
2023-01-19T14:13:29.915Z,5.76
2023-01-19T14:16:14.927Z,5.52
2023-01-19T14:18:43.214Z,5.69
2023-01-19T14:21:13.900Z,5.85
2023-01-19T14:23:48.384Z,5.17
2023-01-19T14:26:38.757Z,5.34
2023-01-19T14:29:09.669Z,5.40
2023-01-19T14:32:06.867Z,5.72
2023-01-19T14:34:52.864Z,5.59
2023-01-19T14:37:29.817Z,5.32
2023-01-19T14:40:08.101Z,5.42
2023-01-19T14:42:38.439Z,5.16
2023-01-19T14:45:20.382Z,5.21
2023-01-19T14:47:57.652Z,5.28
2023-01-19T14:50:29.584Z,5.52
2023-01-19T14:53:07.449Z,5.46
2023-01-19T14:55:54.564Z,5.16
2023-01-19T14:58:25.146Z,5.46
2023-01-19T15:00:56.162Z,5.39
2023-01-19T15:03:35.025Z,5.19
2023-01-19T15:06:18.929Z,5.21
2023-01-19T15:08:50.244Z,5.27
2023-01-19T15:11:31.445Z,5.39
2023-01-19T15:14:00.534Z,5.21
2023-01-19T15:16:29.564Z,5.07
2023-01-19T15:18:57.193Z,5.21
2023-01-19T15:21:26.851Z,5.31
2023-01-19T15:23:55.346Z,5.23
2023-01-19T15:26:27.032Z,5.21
2023-01-19T15:28:56.987Z,5.66
2023-01-19T15:31:26.353Z,5.52
2023-01-19T15:33:54.085Z,5.70
2023-01-19T15:36:24.412Z,5.64
2023-01-19T15:38:52.148Z,5.46
2023-01-19T15:41:23.514Z,5.56
2023-01-19T15:43:51.705Z,5.58
2023-01-19T15:46:23.202Z,5.60
2023-01-19T15:48:51.665Z,5.52
2023-01-19T15:51:21.448Z,5.60
2023-01-19T15:53:50.564Z,5.03
2023-01-19T15:56:23.528Z,5.29
2023-01-19T15:58:52.372Z,5.17
2023-01-19T16:01:24.437Z,5.17
2023-01-19T16:03:52.380Z,5.33
2023-01-19T16:06:19.913Z,5.39
2023-01-19T16:08:47.379Z,5.33
2023-01-19T16:11:15.978Z,5.13
2023-01-19T16:13:46.986Z,5.50
2023-01-19T16:16:21.148Z,5.49
2023-01-19T16:18:49.584Z,5.70
2023-01-19T16:21:17.863Z,5.55
2023-01-19T16:23:45.763Z,5.37
2023-01-19T16:26:25.652Z,5.31
2023-01-19T16:28:59.953Z,5.28
2023-01-19T16:31:28.544Z,5.52
2023-01-19T16:33:56.401Z,5.42
2023-01-19T16:36:31.905Z,5.33
2023-01-19T16:39:01.670Z,4.95
2023-01-19T16:41:29.423Z,4.92
2023-01-19T16:43:57.956Z,5.12
2023-01-19T16:46:30.595Z,5.17
2023-01-19T16:49:00.230Z,5.00
2023-01-19T16:51:29.986Z,4.59
2023-01-19T16:53:58.169Z,4.67
2023-01-19T16:56:25.759Z,4.67
2023-01-19T16:58:57.973Z,4.65
2023-01-19T17:01:27.328Z,4.92
2023-01-19T17:03:56.403Z,4.75
2023-01-19T17:06:25.649Z,4.72
2023-01-19T17:08:53.212Z,4.36
2023-01-19T17:11:23.935Z,4.90
2023-01-19T17:13:56.841Z,4.66
2023-01-19T17:16:25.343Z,4.71
2023-01-19T17:18:53.425Z,4.90
2023-01-19T17:21:20.867Z,5.23
2023-01-19T17:23:50.283Z,5.04
2023-01-19T17:26:18.297Z,4.45
2023-01-19T17:28:46.478Z,4.81
2023-01-19T17:31:19.901Z,5.05
2023-01-19T17:33:49.599Z,4.51
2023-01-19T17:36:22.444Z,4.68
2023-01-19T17:38:50.434Z,5.00
2023-01-19T17:41:21.050Z,5.03
2023-01-19T17:43:52.383Z,4.87
2023-01-19T17:46:22.234Z,5.07
2023-01-19T17:48:57.702Z,4.90
2023-01-19T17:51:26.518Z,5.14
2023-01-19T17:53:54.515Z,4.62
2023-01-19T17:56:26.258Z,4.79
2023-01-19T17:58:54.182Z,4.99
2023-01-19T18:01:24.427Z,4.87
2023-01-19T18:03:52.962Z,4.89
2023-01-19T18:06:21.291Z,5.10
2023-01-19T18:08:49.204Z,4.81
2023-01-19T18:11:19.137Z,4.72
2023-01-19T18:13:48.554Z,5.01
2023-01-19T18:16:19.283Z,4.41
2023-01-19T18:18:49.478Z,4.94
2023-01-19T18:21:17.768Z,4.22
2023-01-19T18:23:45.950Z,4.71
2023-01-19T18:26:20.001Z,4.80
2023-01-19T18:28:48.087Z,5.04
2023-01-19T18:31:18.077Z,4.78
2023-01-19T18:33:47.270Z,5.12
2023-01-19T18:36:15.525Z,4.83
2023-01-19T18:38:44.549Z,5.22
2023-01-19T18:41:14.355Z,5.17
2023-01-19T18:43:42.512Z,4.93
2023-01-19T18:46:10.993Z,4.91
2023-01-19T18:48:39.531Z,5.13
2023-01-19T18:51:08.954Z,4.63
2023-01-19T18:53:36.911Z,4.76
2023-01-19T18:56:05.300Z,4.95
2023-01-19T18:58:34.023Z,5.16
2023-01-19T19:01:02.022Z,4.77
2023-01-19T19:03:30.010Z,5.05
2023-01-19T19:06:02.740Z,4.98
2023-01-19T19:08:30.695Z,5.13
2023-01-19T19:10:58.264Z,5.00
2023-01-19T19:13:25.903Z,4.93
2023-01-19T19:15:54.168Z,4.56
2023-01-19T19:18:21.842Z,4.60
2023-01-19T19:20:49.211Z,4.84
2023-01-19T19:23:17.312Z,4.45
2023-01-19T19:25:44.845Z,4.72
2023-01-19T19:28:12.358Z,4.48
2023-01-19T19:30:41.291Z,4.84
2023-01-19T19:33:08.701Z,4.97
2023-01-19T19:35:36.333Z,4.75
2023-01-19T19:38:04.195Z,4.62
2023-01-19T19:40:31.744Z,5.05
2023-01-19T19:43:00.788Z,4.68
2023-01-19T19:45:28.672Z,4.69
2023-01-19T19:47:57.628Z,4.94
2023-01-19T19:50:25.175Z,4.83
2023-01-19T19:52:53.104Z,4.45
2023-01-19T19:55:20.547Z,4.29
2023-01-19T19:57:48.133Z,4.48
2023-01-19T20:00:16.342Z,4.62
2023-01-19T20:02:44.587Z,4.34
2023-01-19T20:05:12.025Z,4.40
2023-01-19T20:07:46.299Z,4.29
2023-01-19T20:10:14.394Z,4.25
2023-01-19T20:12:41.989Z,4.40
2023-01-19T20:15:10.718Z,4.62
2023-01-19T20:17:38.368Z,4.51
2023-01-19T20:20:06.610Z,4.28
2023-01-19T20:22:34.250Z,4.44
2023-01-19T20:25:02.179Z,4.52
2023-01-19T20:27:29.861Z,4.81
2023-01-19T20:29:58.161Z,4.59
2023-01-19T20:32:26.152Z,4.52
2023-01-19T20:34:53.730Z,4.80
2023-01-19T20:37:21.430Z,4.83
2023-01-19T20:39:49.256Z,4.66
2023-01-19T20:42:17.550Z,4.58
2023-01-19T20:44:45.313Z,4.40
2023-01-19T20:47:13.379Z,3.74
2023-01-19T20:49:41.138Z,4.17
2023-01-19T20:52:08.633Z,4.84
2023-01-19T20:54:36.480Z,4.80
2023-01-19T20:57:03.916Z,5.03
2023-01-19T20:59:31.649Z,4.83
2023-01-19T21:01:59.540Z,4.79
2023-01-19T21:04:27.225Z,4.76
2023-01-19T21:06:54.887Z,4.40
2023-01-19T21:09:22.909Z,4.21
2023-01-19T21:11:50.473Z,4.34
2023-01-19T21:14:19.117Z,4.23
2023-01-19T21:16:46.936Z,4.54
2023-01-19T21:19:14.985Z,4.25
2023-01-19T21:21:42.498Z,3.93
2023-01-19T21:24:11.029Z,4.28
2023-01-19T21:26:38.620Z,4.36
2023-01-19T21:29:06.258Z,4.09
2023-01-19T21:31:34.032Z,4.25
2023-01-19T21:34:01.658Z,4.26
2023-01-19T21:36:29.135Z,4.57
2023-01-19T21:39:00.521Z,4.50
2023-01-19T21:41:29.898Z,4.30
2023-01-19T21:43:58.569Z,4.29
2023-01-19T21:46:29.771Z,4.53
2023-01-19T21:49:03.517Z,3.96
2023-01-19T21:51:35.649Z,4.57
2023-01-19T21:54:05.236Z,4.63
2023-01-19T21:56:33.414Z,3.79
2023-01-19T21:59:04.304Z,3.88
2023-01-19T22:01:32.898Z,4.57
2023-01-19T22:04:00.868Z,4.41
2023-01-19T22:06:28.908Z,4.85
2023-01-19T22:08:57.950Z,4.93
2023-01-19T22:11:25.864Z,4.74
2023-01-19T22:13:53.776Z,5.03
2023-01-19T22:16:23.271Z,4.88
2023-01-19T22:18:54.123Z,4.99
2023-01-19T22:21:23.878Z,4.80
2023-01-19T22:23:53.144Z,4.70
2023-01-19T22:26:21.307Z,5.16
2023-01-19T22:28:52.966Z,5.14
2023-01-19T22:31:21.070Z,5.16
2023-01-19T22:33:51.650Z,5.11
2023-01-19T22:36:24.997Z,5.01
2023-01-19T22:39:08.741Z,4.59
2023-01-19T22:41:37.076Z,4.97
2023-01-19T22:44:08.644Z,5.06
2023-01-19T22:46:37.269Z,5.01
2023-01-19T22:49:07.446Z,4.47
2023-01-19T22:51:35.938Z,4.45
2023-01-19T22:54:04.105Z,4.71
2023-01-19T22:56:34.010Z,5.11
2023-01-19T22:59:01.821Z,4.92
2023-01-19T23:01:33.855Z,4.92
2023-01-19T23:04:02.160Z,4.76
2023-01-19T23:06:31.520Z,4.98
2023-01-19T23:09:00.368Z,4.92
2023-01-19T23:11:34.260Z,5.05
2023-01-19T23:14:04.163Z,4.83
2023-01-19T23:16:32.007Z,4.61
2023-01-19T23:18:59.460Z,4.78
2023-01-19T23:21:28.807Z,4.48
2023-01-19T23:24:01.739Z,4.68
2023-01-19T23:26:30.821Z,4.92
2023-01-19T23:29:00.679Z,4.63
2023-01-19T23:31:36.375Z,4.76
2023-01-19T23:34:06.774Z,4.28
2023-01-19T23:36:37.416Z,4.61
2023-01-19T23:39:16.703Z,4.70
2023-01-19T23:41:44.450Z,4.95
2023-01-19T23:44:12.403Z,4.80
2023-01-19T23:46:39.854Z,4.50
2023-01-19T23:49:07.458Z,4.56
2023-01-19T23:51:35.868Z,5.04
2023-01-19T23:54:03.663Z,4.97
2023-01-19T23:56:36.906Z,4.98
2023-01-19T23:59:07.721Z,5.18
